Time;durP1;ratioP1;P1;durP2;ratioP2;P2;SDS_P1;SDS_P2;PMS_P1;PMS_P2;Temp;Humidity;BMP_temperature;BMP_pressure;BME280_temperature;BME280_humidity;BME280_pressure;Samples;Min_cycle;Max_cycle;Signal;HPM_P1;HPM_P2
2023/06/27 00:00:50;;;;;;;3.53;1.90;;;;;;;19.89;53.29;98431.41;5071055;28;20214;-86
2023/06/27 00:03:18;;;;;;;2.67;1.97;;;;;;;19.89;53.27;98431.41;5074606;28;20234;-85
2023/06/27 00:05:44;;;;;;;3.70;1.80;;;;;;;19.83;53.55;98440.09;5075152;28;20231;-85
2023/06/27 00:08:12;;;;;;;3.27;1.90;;;;;;;19.76;53.86;98449.72;5075178;28;20199;-85
2023/06/27 00:10:39;;;;;;;3.83;1.70;;;;;;;19.80;53.61;98437.69;5074995;28;20324;-85
2023/06/27 00:13:15;;;;;;;2.80;1.50;;;;;;;19.70;53.78;98439.63;5074977;28;20214;-86
2023/06/27 00:15:41;;;;;;;3.60;1.97;;;;;;;19.63;54.17;98443.91;5074841;28;20245;-86
2023/06/27 00:18:08;;;;;;;4.00;1.80;;;;;;;19.62;54.43;98447.59;5074977;28;20215;-85
2023/06/27 00:20:35;;;;;;;3.30;1.70;;;;;;;19.62;54.21;98446.78;5074643;28;20207;-86
2023/06/27 00:23:18;;;;;;;2.83;1.63;;;;;;;19.63;54.35;98448.47;5074817;28;20708;-86
2023/06/27 00:25:45;;;;;;;3.73;2.10;;;;;;;19.62;54.12;98447.59;5074895;28;20238;-86
2023/06/27 00:28:12;;;;;;;2.77;1.70;;;;;;;19.56;54.34;98448.22;5074768;28;20856;-86
2023/06/27 00:30:38;;;;;;;3.73;1.80;;;;;;;19.70;53.67;98444.97;5074513;28;20212;-85
2023/06/27 00:33:05;;;;;;;4.43;1.90;;;;;;;19.70;53.92;98453.03;5074532;28;20214;-85
2023/06/27 00:35:32;;;;;;;4.70;1.80;;;;;;;19.69;53.90;98454.03;5074551;28;20227;-85
2023/06/27 00:37:59;;;;;;;3.63;1.90;;;;;;;19.71;54.27;98457.41;5074815;28;20211;-85
2023/06/27 00:40:27;;;;;;;2.33;1.70;;;;;;;19.72;54.16;98456.41;5074243;28;20211;-85
2023/06/27 00:42:53;;;;;;;3.30;1.70;;;;;;;19.71;54.36;98457.41;5074403;28;20694;-85
2023/06/27 00:45:22;;;;;;;3.83;1.87;;;;;;;19.74;54.31;98462.47;5074393;28;20235;-85
2023/06/27 00:47:50;;;;;;;3.27;2.00;;;;;;;19.74;54.42;98456.28;5074137;28;20211;-86
2023/06/27 00:50:16;;;;;;;3.00;1.93;;;;;;;19.71;54.40;98457.41;5074333;28;20207;-87
2023/06/27 00:52:43;;;;;;;4.87;1.73;;;;;;;19.70;54.70;98466.44;5074435;28;20207;-87
2023/06/27 00:55:10;;;;;;;4.73;1.83;;;;;;;19.73;54.51;98463.47;5074405;28;20368;-87
2023/06/27 00:57:39;;;;;;;5.23;2.30;;;;;;;19.78;54.27;98469.22;5074088;28;20230;-87
2023/06/27 01:00:09;;;;;;;3.93;1.90;;;;;;;19.73;54.54;98460.78;5073809;28;20235;-87
2023/06/27 01:02:36;;;;;;;2.83;1.53;;;;;;;19.70;54.71;98466.44;5074338;28;20298;-86
2023/06/27 01:05:03;;;;;;;5.63;2.20;;;;;;;19.78;54.42;98454.94;5074005;28;20241;-86
2023/06/27 01:07:35;;;;;;;3.43;1.80;;;;;;;19.75;54.39;98466.81;5074017;28;20203;-86
2023/06/27 01:10:06;;;;;;;3.93;1.93;;;;;;;19.71;54.92;98470.81;5073756;28;20211;-87
2023/06/27 01:12:41;;;;;;;5.47;2.33;;;;;;;19.70;54.68;98469.13;5073792;28;20215;-87
2023/06/27 01:15:09;;;;;;;4.90;1.80;;;;;;;19.76;54.77;98467.69;5073447;28;20211;-86
2023/06/27 01:17:37;;;;;;;7.20;2.30;;;;;;;19.74;54.78;98470.50;5073890;28;20686;-86
2023/06/27 01:20:05;;;;;;;3.57;2.10;;;;;;;19.74;54.87;98470.50;5073612;28;20203;-87
2023/06/27 01:22:35;;;;;;;3.07;1.97;;;;;;;19.69;55.07;98477.34;5073890;28;20214;-87
2023/06/27 01:25:07;;;;;;;2.97;1.70;;;;;;;19.69;54.76;98475.47;5073686;28;20235;-86
2023/06/27 01:27:34;;;;;;;3.43;1.87;;;;;;;19.64;55.11;98472.41;5073748;28;20697;-87
2023/06/27 01:30:01;;;;;;;2.87;1.40;;;;;;;19.58;55.25;98473.03;5073616;28;20207;-87
2023/06/27 01:32:35;;;;;;;3.67;1.80;;;;;;;19.62;54.81;98462.88;5073784;28;20252;-87
2023/06/27 01:35:08;;;;;;;2.33;1.87;;;;;;;19.66;54.17;98470.44;5073759;28;20286;-87
2023/06/27 01:37:39;;;;;;;4.30;2.00;;;;;;;19.52;54.57;98467.47;5073802;28;20217;-86
2023/06/27 01:40:11;;;;;;;2.97;2.00;;;;;;;19.50;54.81;98464.09;5073585;28;20218;-87
2023/06/27 01:42:41;;;;;;;4.17;1.80;;;;;;;19.43;54.96;98479.09;5074049;28;20207;-87
2023/06/27 01:45:09;;;;;;;3.77;1.80;;;;;;;19.38;54.99;98466.16;5073479;28;20223;-87
2023/06/27 01:47:37;;;;;;;3.77;2.10;;;;;;;19.33;55.25;98467.63;5073429;28;20207;-87
2023/06/27 01:50:04;;;;;;;3.83;1.77;;;;;;;19.29;55.51;98471.56;5073272;28;20294;-86
2023/06/27 01:52:31;;;;;;;4.00;2.00;;;;;;;19.19;55.78;98465.44;5073487;28;20203;-87
2023/06/27 01:54:59;;;;;;;5.57;2.13;;;;;;;19.13;56.21;98469.53;5073392;28;20568;-86
2023/06/27 01:57:27;;;;;;;4.10;1.93;;;;;;;19.02;56.61;98467.06;5073170;28;20292;-86
2023/06/27 01:59:54;;;;;;;4.27;2.00;;;;;;;19.09;56.91;98481.53;5072909;28;20208;-86
2023/06/27 02:02:20;;;;;;;2.67;2.03;;;;;;;19.03;56.99;98471.41;5073075;28;20215;-86
2023/06/27 02:04:47;;;;;;;3.10;1.83;;;;;;;18.94;57.29;98477.69;5072782;28;20227;-87
2023/06/27 02:07:13;;;;;;;2.57;1.70;;;;;;;18.92;57.36;98485.03;5072995;28;20234;-86
2023/06/27 02:09:40;;;;;;;5.60;2.10;;;;;;;18.96;56.98;98470.34;5072746;28;20298;-86
2023/06/27 02:12:09;;;;;;;5.07;1.70;;;;;;;18.93;57.22;98481.38;5072659;28;20732;-86
2023/06/27 02:14:37;;;;;;;3.63;1.90;;;;;;;18.96;56.83;98475.69;5072695;28;20299;-86
2023/06/27 02:17:04;;;;;;;5.13;2.17;;;;;;;19.00;56.78;98477.09;5072535;28;20235;-86
2023/06/27 02:19:30;;;;;;;4.10;1.77;;;;;;;19.00;56.69;98476.25;5072342;28;20211;-86
2023/06/27 02:21:57;;;;;;;3.37;1.57;;;;;;;19.01;56.65;98478.78;5073029;28;20591;-86
2023/06/27 02:24:24;;;;;;;4.47;2.10;;;;;;;19.07;56.38;98472.81;5072630;28;20368;-87
2023/06/27 02:26:50;;;;;;;3.30;2.07;;;;;;;19.10;56.30;98477.03;5072232;28;20253;-86
2023/06/27 02:29:17;;;;;;;2.67;1.87;;;;;;;19.12;56.38;98473.22;5072300;28;20376;-86
2023/06/27 02:31:45;;;;;;;4.73;2.50;;;;;;;19.11;56.11;98468.84;5072282;28;20207;-86
2023/06/27 02:34:11;;;;;;;2.23;1.73;;;;;;;19.13;56.22;98463.34;5072246;28;20215;-86
2023/06/27 02:36:37;;;;;;;5.20;2.10;;;;;;;19.13;56.10;98464.19;5072300;28;20224;-86
2023/06/27 02:39:04;;;;;;;3.87;2.00;;;;;;;19.14;55.83;98457.81;5072307;28;20211;-86
2023/06/27 02:41:30;;;;;;;4.57;2.20;;;;;;;19.09;56.53;98465.47;5071980;28;20219;-86
2023/06/27 02:43:57;;;;;;;2.43;1.80;;;;;;;19.07;56.46;98462.09;5072166;28;20223;-86
2023/06/27 02:46:23;;;;;;;3.17;1.70;;;;;;;19.01;56.80;98468.06;5071788;28;20223;-86
2023/06/27 02:48:51;;;;;;;3.23;2.03;;;;;;;18.96;57.10;98469.53;5072270;28;20212;-86
2023/06/27 02:51:18;;;;;;;3.93;2.00;;;;;;;18.97;57.07;98472.03;5072155;28;20207;-87
2023/06/27 02:53:44;;;;;;;3.37;1.60;;;;;;;18.91;57.66;98471.78;5072146;28;20204;-86
2023/06/27 02:56:11;;;;;;;2.50;1.57;;;;;;;18.80;58.08;98475.53;5071367;28;20326;-86
2023/06/27 02:58:38;;;;;;;3.60;2.07;;;;;;;18.77;58.43;98470.44;5071793;28;20208;-86
2023/06/27 03:01:06;;;;;;;4.93;2.30;;;;;;;18.71;59.07;98476.41;5071436;28;20276;-86
2023/06/27 03:03:32;;;;;;;3.37;2.00;;;;;;;18.66;58.91;98476.00;5071851;28;20556;-85
2023/06/27 03:06:03;;;;;;;4.83;2.03;;;;;;;18.57;59.35;98474.22;5071593;28;20233;-86
2023/06/27 03:08:30;;;;;;;4.43;2.20;;;;;;;18.62;58.95;98473.78;5071750;28;20742;-85
2023/06/27 03:10:56;;;;;;;5.20;2.00;;;;;;;18.59;59.05;98482.94;5071397;28;20215;-86
2023/06/27 03:13:23;;;;;;;3.33;1.97;;;;;;;18.57;58.82;98476.91;5071891;28;20219;-89
2023/06/27 03:15:49;;;;;;;4.20;2.20;;;;;;;18.53;58.86;98472.81;5071638;28;20232;-86
2023/06/27 03:18:16;;;;;;;3.87;1.77;;;;;;;18.46;58.81;98482.44;5071565;28;20213;-86
2023/06/27 03:20:42;;;;;;;3.17;1.70;;;;;;;18.38;59.17;98476.97;5071498;28;20595;-86
2023/06/27 03:23:10;;;;;;;3.00;1.87;;;;;;;18.33;59.46;98481.06;5071874;28;20215;-86
2023/06/27 03:25:36;;;;;;;4.70;2.10;;;;;;;18.34;59.36;98486.28;5071708;28;20322;-86
2023/06/27 03:28:03;;;;;;;2.50;1.90;;;;;;;18.34;59.26;98477.41;5071465;28;20214;-86
2023/06/27 03:30:30;;;;;;;3.23;1.80;;;;;;;18.29;59.27;98468.94;5071171;28;20211;-85
2023/06/27 03:32:56;;;;;;;3.60;1.80;;;;;;;18.26;59.45;98470.06;5071551;28;20218;-86
2023/06/27 03:35:23;;;;;;;3.07;1.87;;;;;;;18.16;59.76;98474.59;5071657;28;20227;-86
2023/06/27 03:37:50;;;;;;;3.03;1.87;;;;;;;18.12;60.11;98481.25;5071136;28;20691;-86
2023/06/27 03:40:19;;;;;;;3.23;1.80;;;;;;;18.15;59.78;98483.63;5071519;28;20207;-85
2023/06/27 03:42:45;;;;;;;3.07;1.70;;;;;;;18.12;60.11;98491.94;5071354;28;20207;-85
2023/06/27 03:45:11;;;;;;;7.37;1.90;;;;;;;18.08;60.46;98498.56;5072812;28;20231;-85
2023/06/27 03:47:38;;;;;;;4.00;1.83;;;;;;;18.07;60.42;98488.84;5071163;28;20215;-86
2023/06/27 03:50:06;;;;;;;4.67;1.90;;;;;;;18.10;60.19;98488.56;5071315;28;20211;-85
2023/06/27 03:52:32;;;;;;;5.03;1.90;;;;;;;18.08;60.08;98493.22;5072347;28;20210;-85
2023/06/27 03:54:59;;;;;;;1.83;1.70;;;;;;;18.08;60.36;98492.34;5075403;28;20211;-86
2023/06/27 03:57:27;;;;;;;3.50;1.80;;;;;;;18.14;60.20;98492.63;5075350;28;20215;-86
2023/06/27 03:59:53;;;;;;;4.50;2.10;;;;;;;18.13;60.22;98496.31;5076911;28;20206;-86
2023/06/27 04:02:20;;;;;;;3.77;1.93;;;;;;;18.12;60.37;98489.28;5076637;28;20237;-85
2023/06/27 04:04:46;;;;;;;5.07;1.83;;;;;;;18.13;60.04;98496.31;5070966;28;20230;-87
2023/06/27 04:07:14;;;;;;;3.60;1.90;;;;;;;18.14;60.49;98492.63;5070918;28;20227;-87
2023/06/27 04:09:40;;;;;;;2.47;1.80;;;;;;;18.11;60.84;98495.59;5070768;28;20254;-87
2023/06/27 04:12:09;;;;;;;5.17;2.30;;;;;;;18.12;60.95;98494.63;5070865;28;20203;-87
2023/06/27 04:14:37;;;;;;;3.60;2.23;;;;;;;18.11;60.68;98492.91;5071125;28;20214;-85
2023/06/27 04:17:03;;;;;;;5.70;1.90;;;;;;;18.09;60.80;98497.56;5071093;28;20227;-85
2023/06/27 04:19:30;;;;;;;4.67;1.93;;;;;;;18.17;60.23;98496.84;5070692;28;20688;-85
2023/06/27 04:21:57;;;;;;;4.87;2.23;;;;;;;18.17;60.29;98496.84;5070811;28;20693;-87
2023/06/27 04:24:23;;;;;;;6.27;1.97;;;;;;;18.22;60.41;98497.28;5070812;28;20705;-85
2023/06/27 04:26:50;;;;;;;1.80;1.57;;;;;;;18.16;60.60;98498.69;5071061;28;20230;-85
2023/06/27 04:29:16;;;;;;;2.27;1.70;;;;;;;18.19;60.68;98493.06;5071023;28;20212;-86
2023/06/27 04:31:44;;;;;;;3.83;2.03;;;;;;;18.29;60.47;98499.19;5070838;28;20603;-87
2023/06/27 04:34:11;;;;;;;4.70;2.00;;;;;;;18.28;60.75;98508.22;5070913;28;20207;-87
2023/06/27 04:36:40;;;;;;;4.27;1.67;;;;;;;18.35;60.02;98509.38;5070480;28;20326;-86
2023/06/27 04:39:07;;;;;;;2.67;1.50;;;;;;;18.29;59.62;98501.88;5070747;28;20302;-85
2023/06/27 04:41:33;;;;;;;2.97;1.93;;;;;;;18.30;59.95;98513.44;5070560;28;20214;-85
2023/06/27 04:44:00;;;;;;;4.70;1.97;;;;;;;18.26;60.08;98504.84;5070657;28;20587;-85
2023/06/27 04:46:28;;;;;;;2.13;1.80;;;;;;;18.27;59.95;98501.19;5070579;28;20231;-86
2023/06/27 04:48:56;;;;;;;3.40;1.97;;;;;;;18.32;59.81;98501.63;5073323;28;20207;-87
2023/06/27 04:51:23;;;;;;;3.30;1.90;;;;;;;18.40;59.47;98503.59;5074015;28;20207;-86
2023/06/27 04:53:50;;;;;;;4.50;2.13;;;;;;;18.47;59.21;98504.69;5087319;28;20215;-87
2023/06/27 04:56:16;;;;;;;3.07;1.80;;;;;;;18.48;59.08;98514.41;5096292;28;20235;-86
2023/06/27 04:58:43;;;;;;;3.83;1.90;;;;;;;18.44;59.28;98511.19;5096226;28;20579;-87
2023/06/27 05:01:10;;;;;;;3.47;1.80;;;;;;;18.43;59.11;98512.19;5095349;28;20253;-85
2023/06/27 05:03:37;;;;;;;3.57;2.00;;;;;;;18.44;59.27;98511.19;5095688;28;20203;-86
2023/06/27 05:06:05;;;;;;;4.07;1.93;;;;;;;18.50;59.26;98515.09;5095101;28;20227;-87
2023/06/27 05:08:33;;;;;;;4.67;2.30;;;;;;;18.55;58.57;98508.34;5081734;28;20211;-86
2023/06/27 05:11:00;;;;;;;3.97;2.10;;;;;;;18.57;58.37;98511.69;5074816;28;20248;-86
2023/06/27 05:13:26;;;;;;;2.80;1.80;;;;;;;18.63;57.68;98510.25;5074840;28;20211;-79
2023/06/27 05:15:52;;;;;;;3.63;1.90;;;;;;;18.66;57.08;98505.44;5074545;28;20720;-80
2023/06/27 05:18:23;;;;;;;4.40;1.80;;;;;;;18.73;56.47;98497.69;5074160;28;20216;-79
2023/06/27 05:20:50;;;;;;;2.60;1.80;;;;;;;18.76;56.28;98503.59;5074093;28;20294;-79
2023/06/27 05:23:18;;;;;;;4.53;1.90;;;;;;;18.75;56.76;98509.94;5074685;28;20207;-79
2023/06/27 05:25:45;;;;;;;6.10;1.93;;;;;;;18.89;56.18;98506.75;5074598;28;20231;-78
2023/06/27 05:28:11;;;;;;;3.27;1.80;;;;;;;18.87;56.32;98502.53;5074695;28;20229;-79
2023/06/27 05:30:38;;;;;;;5.27;2.00;;;;;;;18.89;56.33;98505.94;5074313;28;20208;-78
2023/06/27 05:33:05;;;;;;;2.70;2.00;;;;;;;18.89;55.50;98498.72;5074171;28;20261;-81
2023/06/27 05:35:32;;;;;;;3.13;1.87;;;;;;;18.97;55.08;98498.81;5074223;28;20224;-83
2023/06/27 05:38:02;;;;;;;4.40;2.00;;;;;;;19.04;54.96;98510.66;5073988;28;20211;-82
2023/06/27 05:40:30;;;;;;;3.23;1.90;;;;;;;19.06;55.34;98511.31;5074479;28;20214;-82
2023/06/27 05:42:56;;;;;;;3.53;1.70;;;;;;;19.04;56.24;98516.00;5074229;28;20592;-80
2023/06/27 05:45:23;;;;;;;4.87;1.80;;;;;;;19.16;56.77;98527.34;5074078;28;20235;-81
2023/06/27 05:47:49;;;;;;;4.17;1.93;;;;;;;19.21;56.77;98527.78;5073516;28;20230;-81
2023/06/27 05:50:16;;;;;;;2.13;1.50;;;;;;;19.33;56.08;98522.03;5074109;28;20212;-79
2023/06/27 05:52:42;;;;;;;3.30;1.93;;;;;;;19.46;54.12;98511.81;5073528;28;20211;-79
2023/06/27 05:55:09;;;;;;;1.90;1.63;;;;;;;19.83;53.38;98504.47;5072825;28;20218;-79
2023/06/27 05:57:37;;;;;;;4.70;1.67;;;;;;;20.22;51.09;98505.81;5073252;28;20560;-79
2023/06/27 06:00:10;;;;;;;2.70;1.70;;;;;;;20.37;50.79;98504.22;5072410;28;20216;-79
2023/06/27 06:02:37;;;;;;;3.27;1.90;;;;;;;20.45;50.98;98508.81;5073164;28;20207;-81
2023/06/27 06:05:04;;;;;;;6.43;1.87;;;;;;;20.50;50.94;98501.97;5073087;28;20266;-81
2023/06/27 06:07:31;;;;;;;2.00;1.60;;;;;;;20.48;50.51;98487.84;5073390;28;20207;-81
2023/06/27 06:09:57;;;;;;;3.13;1.80;;;;;;;20.58;51.48;98493.97;5072943;28;20213;-81
2023/06/27 06:12:24;;;;;;;6.03;1.90;;;;;;;20.65;51.23;98502.19;5072867;28;20203;-81
2023/06/27 06:14:52;;;;;;;2.23;1.70;;;;;;;20.52;51.00;98502.66;5072570;28;20210;-81
2023/06/27 06:17:18;;;;;;;4.37;2.20;;;;;;;20.47;51.57;98507.66;5072698;28;20593;-80
2023/06/27 06:19:45;;;;;;;2.67;1.80;;;;;;;20.49;52.33;98502.13;5072194;28;20686;-81
2023/06/27 06:22:11;;;;;;;3.40;1.53;;;;;;;20.52;52.06;98507.16;5072768;28;20203;-83
2023/06/27 06:24:38;;;;;;;4.20;2.00;;;;;;;20.59;50.28;98487.56;5072578;28;20203;-82
2023/06/27 06:27:04;;;;;;;3.30;1.70;;;;;;;20.57;50.13;98492.28;5072488;28;20235;-83
2023/06/27 06:29:31;;;;;;;4.03;1.87;;;;;;;20.63;49.78;98499.69;5071967;28;20222;-83
2023/06/27 06:31:59;;;;;;;3.30;1.70;;;;;;;20.80;49.72;98498.75;5072203;28;20215;-81
2023/06/27 06:34:25;;;;;;;3.40;2.03;;;;;;;20.88;49.24;98501.53;5070624;28;20211;-85
2023/06/27 06:36:52;;;;;;;4.23;1.90;;;;;;;21.01;49.80;98493.84;5069249;28;20249;-84
2023/06/27 06:39:19;;;;;;;3.77;1.90;;;;;;;21.37;49.48;98494.47;5069119;28;20211;-84
2023/06/27 06:41:45;;;;;;;3.13;1.50;;;;;;;21.70;48.95;98501.63;5069542;28;20705;-84
2023/06/27 06:44:12;;;;;;;2.57;1.80;;;;;;;21.88;48.62;98510.41;5071995;28;20207;-85
2023/06/27 06:46:40;;;;;;;4.10;1.80;;;;;;;22.03;48.72;98504.19;5071674;28;20597;-84
2023/06/27 06:49:09;;;;;;;3.27;1.70;;;;;;;22.30;47.26;98493.03;5069336;28;20203;-83
2023/06/27 06:51:35;;;;;;;3.00;1.80;;;;;;;22.42;46.16;98483.59;5069308;28;20318;-83
2023/06/27 06:54:02;;;;;;;2.33;1.63;;;;;;;22.48;45.66;98488.31;5069094;28;20214;-84
2023/06/27 06:56:28;;;;;;;2.67;1.60;;;;;;;22.68;45.70;98489.63;5070663;28;20321;-82
2023/06/27 06:58:55;;;;;;;2.23;1.60;;;;;;;23.00;45.07;98494.91;5071491;28;20219;-80
2023/06/27 07:01:22;;;;;;;3.53;1.63;;;;;;;22.88;45.16;98485.53;5069256;28;20635;-81
2023/06/27 07:03:49;;;;;;;4.33;1.70;;;;;;;22.95;44.68;98485.66;5070921;28;20223;-81
2023/06/27 07:06:17;;;;;;;2.87;1.63;;;;;;;22.95;44.99;98491.91;5071097;28;20235;-81
2023/06/27 07:08:43;;;;;;;2.43;1.80;;;;;;;23.01;45.21;98496.59;5071575;28;20208;-81
2023/06/27 07:11:10;;;;;;;3.50;1.87;;;;;;;23.21;45.22;98492.47;5070219;28;20591;-81
2023/06/27 07:13:36;;;;;;;2.97;1.50;;;;;;;23.06;43.88;98482.56;5071331;28;20208;-81
2023/06/27 07:16:03;;;;;;;3.73;1.70;;;;;;;22.63;43.81;98475.84;5071468;28;20245;-82
2023/06/27 07:18:29;;;;;;;2.80;1.80;;;;;;;22.55;44.18;98483.09;5071330;28;20701;-81
2023/06/27 07:20:56;;;;;;;2.93;1.60;;;;;;;22.32;44.82;98474.03;5070970;28;20207;-81
2023/06/27 07:23:24;;;;;;;3.93;1.70;;;;;;;22.16;44.95;98466.81;5071275;28;20219;-81
2023/06/27 07:25:50;;;;;;;3.77;1.40;;;;;;;22.15;45.26;98480.44;5071009;28;20805;-81
2023/06/27 07:28:17;;;;;;;3.17;1.70;;;;;;;22.06;45.49;98476.91;5071313;28;20230;-81
2023/06/27 07:30:45;;;;;;;4.60;1.77;;;;;;;22.20;45.57;98478.91;5070977;28;20214;-81
2023/06/27 07:33:12;;;;;;;3.93;1.60;;;;;;;22.34;44.75;98472.84;5071164;28;20214;-81
2023/06/27 07:35:38;;;;;;;3.07;2.03;;;;;;;22.29;45.42;98494.06;5071208;28;20232;-81
2023/06/27 07:38:05;;;;;;;4.07;1.70;;;;;;;22.27;44.89;98479.94;5071046;28;20214;-82
2023/06/27 07:40:33;;;;;;;2.67;1.63;;;;;;;22.29;44.43;98469.81;5069338;28;20684;-81
2023/06/27 07:42:59;;;;;;;2.07;1.40;;;;;;;22.35;44.71;98466.44;5069807;28;20305;-81
2023/06/27 07:45:29;;;;;;;3.00;1.63;;;;;;;22.42;43.49;98467.44;5070195;28;20242;-81
2023/06/27 07:47:56;;;;;;;2.47;1.47;;;;;;;22.37;43.43;98464.41;5070306;28;20709;-81
2023/06/27 07:50:22;;;;;;;3.83;1.60;;;;;;;22.39;42.25;98462.41;5069551;28;20681;-81
2023/06/27 07:52:49;;;;;;;3.33;1.80;;;;;;;22.40;43.60;98484.78;5070369;28;20217;-81
2023/06/27 07:55:18;;;;;;;3.17;1.93;;;;;;;22.37;43.71;98477.88;5067534;28;20226;-81
2023/06/27 07:57:46;;;;;;;3.50;1.60;;;;;;;22.48;44.13;98485.63;5069134;28;20580;-81
2023/06/27 08:00:13;;;;;;;2.77;1.60;;;;;;;22.56;43.37;98474.00;5066937;28;20207;-81
2023/06/27 08:02:40;;;;;;;2.63;1.53;;;;;;;22.57;43.83;98486.44;5067288;28;20211;-81
2023/06/27 08:05:08;;;;;;;2.97;1.70;;;;;;;22.66;44.09;98493.50;5066868;28;20534;-81
2023/06/27 08:07:35;;;;;;;2.90;1.57;;;;;;;22.96;43.33;98487.31;5069756;28;20214;-81
2023/06/27 08:10:03;;;;;;;3.37;1.70;;;;;;;23.06;43.50;98483.44;5069463;28;20578;-81
2023/06/27 08:12:30;;;;;;;3.63;1.70;;;;;;;23.11;43.25;98470.22;5069883;28;20290;-81
2023/06/27 08:14:57;;;;;;;2.60;1.70;;;;;;;23.06;42.73;98463.69;5069844;28;20219;-81
2023/06/27 08:17:24;;;;;;;2.63;1.53;;;;;;;23.09;42.93;98466.88;5069869;28;20231;-81
2023/06/27 08:19:50;;;;;;;4.37;1.73;;;;;;;23.18;42.73;98470.41;5069298;28;20214;-81
2023/06/27 08:22:17;;;;;;;2.47;1.93;;;;;;;23.24;42.36;98458.91;5069904;28;20214;-81
2023/06/27 08:24:43;;;;;;;3.37;1.83;;;;;;;23.22;43.30;98461.78;5074220;28;20215;-81
2023/06/27 08:27:10;;;;;;;3.13;1.80;;;;;;;23.35;42.77;98459.34;5073985;28;20235;-81
2023/06/27 08:29:36;;;;;;;2.77;1.57;;;;;;;23.55;42.84;98452.50;5073534;28;20219;-81
2023/06/27 08:32:05;;;;;;;2.03;1.60;;;;;;;23.86;42.24;98450.56;5073877;28;20217;-81
2023/06/27 08:34:36;;;;;;;5.50;1.90;;;;;;;23.90;41.27;98441.09;5073607;28;20215;-81
2023/06/27 08:37:03;;;;;;;7.00;2.03;;;;;;;23.75;41.26;98440.19;5074065;28;20227;-81
2023/06/27 08:39:29;;;;;;;2.80;1.97;;;;;;;23.57;42.37;98445.03;5074334;28;20311;-80
2023/06/27 08:41:57;;;;;;;5.00;1.70;;;;;;;23.65;42.37;98442.28;5074988;28;20211;-81
2023/06/27 08:44:23;;;;;;;3.67;1.87;;;;;;;23.58;41.94;98430.53;5074911;28;20642;-81
2023/06/27 08:46:52;;;;;;;1.90;1.70;;;;;;;23.62;41.95;98434.56;5073952;28;20235;-81
2023/06/27 08:49:22;;;;;;;3.60;1.70;;;;;;;23.60;42.24;98436.56;5074189;28;20584;-82
2023/06/27 08:51:50;;;;;;;4.13;1.70;;;;;;;23.59;41.49;98426.81;5074241;28;20215;-81
2023/06/27 08:54:32;;;;;;;5.23;1.90;;;;;;;23.58;42.32;98433.22;5074195;28;20208;-84
2023/06/27 08:56:59;;;;;;;5.50;1.90;;;;;;;23.52;42.18;98436.63;5089056;22;20239;-76
2023/06/27 08:59:30;;;;;;;3.43;1.93;;;;;;;23.61;42.86;98435.59;5073035;28;20211;-76
2023/06/27 09:02:00;;;;;;;2.20;1.90;;;;;;;23.59;42.28;98436.78;5073670;28;20227;-76
2023/06/27 09:04:28;;;;;;;4.03;2.10;;;;;;;23.38;41.71;98423.94;5073984;28;20207;-76
2023/06/27 09:06:55;;;;;;;2.13;1.50;;;;;;;23.11;42.71;98426.25;5073592;28;20713;-76
2023/06/27 09:09:22;;;;;;;4.70;1.70;;;;;;;23.29;42.78;98429.56;5073490;28;20215;-76
2023/06/27 09:11:50;;;;;;;3.37;2.10;;;;;;;23.15;42.82;98433.81;5073833;28;20215;-75
2023/06/27 09:14:17;;;;;;;3.97;2.00;;;;;;;23.35;42.36;98431.53;5073519;28;20211;-76
2023/06/27 09:16:44;;;;;;;2.67;1.67;;;;;;;23.32;42.11;98418.41;5073675;28;20592;-75
2023/06/27 09:19:10;;;;;;;4.10;2.10;;;;;;;23.10;42.44;98414.63;5073192;28;20211;-75
2023/06/27 09:21:40;;;;;;;3.20;1.80;;;;;;;22.95;42.62;98424.50;5073270;28;20207;-75
2023/06/27 09:24:07;;;;;;;2.77;2.00;;;;;;;22.84;42.70;98418.63;5073545;28;20207;-75
2023/06/27 09:26:33;;;;;;;1.60;1.50;;;;;;;22.74;42.94;98418.03;5073239;28;20238;-75
2023/06/27 09:29:00;;;;;;;3.17;1.97;;;;;;;22.89;42.46;98414.41;5073098;28;20226;-76
2023/06/27 09:31:28;;;;;;;5.40;2.00;;;;;;;22.75;42.51;98415.13;5073045;28;20282;-74
2023/06/27 09:34:04;;;;;;;2.73;1.90;;;;;;;22.84;42.23;98411.41;5072569;28;20268;-75
2023/06/27 09:36:32;;;;;;;3.57;1.93;;;;;;;23.09;42.34;98414.78;5073036;28;20280;-75
2023/06/27 09:39:03;;;;;;;3.73;1.47;;;;;;;23.04;41.52;98404.53;5073018;28;20207;-76
2023/06/27 09:41:45;;;;;;;5.43;1.90;;;;;;;23.25;42.34;98423.69;5072657;28;20276;-75
2023/06/27 09:44:13;;;;;;;2.63;1.70;;;;;;;23.42;40.42;98400.13;5072911;28;20211;-76
2023/06/27 09:46:40;;;;;;;4.33;2.00;;;;;;;23.47;41.28;98417.44;5072807;28;20318;-76
2023/06/27 09:49:07;;;;;;;3.03;1.90;;;;;;;23.45;40.64;98414.09;5072713;28;20298;-76
2023/06/27 09:51:34;;;;;;;4.07;1.97;;;;;;;23.42;40.46;98414.44;5072843;28;20268;-75
2023/06/27 09:54:02;;;;;;;5.27;2.10;;;;;;;23.44;40.74;98406.19;5072770;28;20211;-75
2023/06/27 09:56:30;;;;;;;3.47;1.97;;;;;;;23.49;40.60;98396.53;5072757;28;20656;-75
2023/06/27 09:58:56;;;;;;;2.60;1.63;;;;;;;23.55;40.62;98403.06;5072683;28;20256;-75
2023/06/27 10:01:24;;;;;;;2.87;1.70;;;;;;;23.74;40.71;98402.56;5072452;28;20701;-76
2023/06/27 10:03:50;;;;;;;1.73;1.53;;;;;;;23.81;40.32;98396.25;5072490;28;20662;-76
2023/06/27 10:06:17;;;;;;;4.53;2.17;;;;;;;23.85;39.93;98394.03;5072398;28;20231;-75
2023/06/27 10:08:44;;;;;;;4.93;1.80;;;;;;;23.92;40.59;98401.25;5072459;28;20227;-76
2023/06/27 10:11:11;;;;;;;2.97;1.67;;;;;;;23.81;40.37;98393.56;5072253;28;20283;-76
2023/06/27 10:13:38;;;;;;;5.13;1.87;;;;;;;23.73;40.31;98396.34;5072466;28;20211;-76
2023/06/27 10:16:06;;;;;;;2.37;1.87;;;;;;;23.62;40.37;98391.38;5072389;28;20618;-76
2023/06/27 10:18:32;;;;;;;3.97;1.80;;;;;;;23.53;40.28;98397.84;5072326;28;20219;-76
2023/06/27 10:20:59;;;;;;;2.03;1.60;;;;;;;23.53;40.89;98403.25;5071989;28;20219;-76
2023/06/27 10:23:26;;;;;;;2.97;2.20;;;;;;;23.60;40.40;98390.69;5072066;28;20678;-77
2023/06/27 10:25:54;;;;;;;2.43;1.90;;;;;;;23.72;40.31;98385.72;5072424;28;20227;-77
2023/06/27 10:28:22;;;;;;;2.87;1.73;;;;;;;23.66;40.21;98389.16;5072392;28;20230;-77
2023/06/27 10:30:48;;;;;;;2.70;1.80;;;;;;;23.88;41.06;98394.53;5071777;28;20207;-77
2023/06/27 10:33:27;;;;;;;2.93;1.60;;;;;;;24.32;40.45;98397.31;5072059;28;20211;-77
2023/06/27 10:36:02;;;;;;;4.13;1.83;;;;;;;24.53;38.98;98381.19;5071873;28;20614;-76
2023/06/27 10:38:36;;;;;;;5.75;2.22;;;;;;;24.58;38.00;98385.06;5071710;28;20810;-76
2023/06/27 10:41:12;;;;;;;3.67;1.50;;;;;;;24.69;38.38;98395.38;5071549;28;20593;-77
2023/06/27 10:43:48;;;;;;;2.75;1.50;;;;;;;24.69;38.01;98392.66;5071988;28;20210;-76
2023/06/27 10:46:18;;;;;;;4.63;2.10;;;;;;;24.82;37.66;98387.41;5071438;28;20239;-76
2023/06/27 10:48:49;;;;;;;2.30;1.60;;;;;;;24.87;38.28;98397.69;5072236;28;20222;-77
2023/06/27 10:51:17;;;;;;;3.53;1.90;;;;;;;24.76;38.79;98396.28;5071622;28;20254;-78
2023/06/27 10:53:46;;;;;;;2.88;1.63;;;;;;;24.79;38.51;98393.22;5071837;28;20400;-79
2023/06/27 10:56:16;;;;;;;3.03;1.77;;;;;;;25.04;38.82;98404.53;5071514;28;20239;-79
2023/06/27 10:58:47;;;;;;;2.60;1.50;;;;;;;25.18;38.35;98396.38;5071585;28;20208;-78
2023/06/27 11:01:20;;;;;;;3.20;1.70;;;;;;;25.28;37.82;98399.66;5071263;28;20749;-79
2023/06/27 11:03:52;;;;;;;2.30;1.50;;;;;;;25.21;37.36;98396.03;5071776;28;20708;-78
2023/06/27 11:06:18;;;;;;;4.45;1.90;;;;;;;25.16;37.62;98401.16;5071460;28;20231;-78
2023/06/27 11:08:55;;;;;;;2.72;1.60;;;;;;;25.09;37.39;98394.84;5071540;28;20212;-78
2023/06/27 11:11:27;;;;;;;6.05;1.88;;;;;;;24.98;37.01;98398.03;5071103;28;20206;-78
2023/06/27 11:14:04;;;;;;;2.42;1.63;;;;;;;24.98;36.96;98387.22;5071564;28;20230;-78
2023/06/27 11:16:31;;;;;;;5.23;1.80;;;;;;;24.90;37.52;98392.75;5071115;28;20234;-77
2023/06/27 11:18:58;;;;;;;3.27;1.80;;;;;;;24.63;38.37;98400.69;5071225;28;20670;-76
2023/06/27 11:21:25;;;;;;;2.57;1.83;;;;;;;24.41;38.29;98401.59;5070911;28;20207;-76
2023/06/27 11:23:55;;;;;;;2.97;1.90;;;;;;;24.27;38.46;98400.56;5071508;28;20212;-76
2023/06/27 11:26:22;;;;;;;2.73;1.60;;;;;;;24.37;38.48;98390.31;5071013;28;20234;-76
2023/06/27 11:28:49;;;;;;;2.13;1.50;;;;;;;24.50;38.38;98400.50;5071076;28;20302;-76
2023/06/27 11:31:17;;;;;;;1.90;1.67;;;;;;;24.53;38.74;98400.94;5070661;28;20207;-76
2023/06/27 11:33:44;;;;;;;3.33;1.67;;;;;;;24.67;37.94;98385.75;5071049;28;20211;-75
2023/06/27 11:36:11;;;;;;;4.20;1.77;;;;;;;24.57;37.63;98383.34;5070920;28;20234;-76